Terminal Aerodrome Forecast
Issued by NWS

Home | Current Version | Previous Version | Text Only | Print | Product List | Glossary On
Versions: 1 2 3 4 5 6 7 8 9 10 11 12 13 14 15 16 17 18 19 20 21 22 23
000
FTPQ31 PGUM 041129
TAFGUM
TAF

TAF
PTYA 041129Z 0412/0512 36015G24KT P6SM VCSH SCT015 BKN040 OVC100
      TEMPO 0412/0415 36018G28KT 3SM SHRA BKN015 OVC050
     FM041500 33018G28KT 6SM -RA SCT015 BKN050 OVC090
      TEMPO 0415/0419 33020G35KT 2SM +SHRA BKN015 OVC040
     FM050000 31030G45KT 5SM -RA SCT010 BKN030 OVC080=

USA.gov is the U.S. government's official web portal to all federal, state and local government web resources and services.